Time;durP1;ratioP1;P1;durP2;ratioP2;P2;SDS_P1;SDS_P2;PMS_P1;PMS_P2;Temp;Humidity;BMP_temperature;BMP_pressure;BME280_temperature;BME280_humidity;BME280_pressure;Samples;Min_cycle;Max_cycle;Signal;HPM_P1;HPM_P2
2024/04/03 00:01:44;;;;;;;;;;;18.10;54.90;;;;;;5042404;28;87967;-57
2024/04/03 00:04:09;;;;;;;;;;;18.10;54.90;;;;;;5044870;27;89019;-57
2024/04/03 00:06:35;;;;;;;;;;;18.00;54.80;;;;;;5044756;27;87627;-56
2024/04/03 00:09:00;;;;;;;;;;;18.00;54.90;;;;;;5045078;28;87457;-57
2024/04/03 00:11:26;;;;;;;;;;;18.00;54.90;;;;;;5045716;28;87521;-56
2024/04/03 00:13:51;;;;;;;;;;;18.00;54.90;;;;;;5045672;27;87105;-57
2024/04/03 00:16:17;;;;;;;;;;;18.00;55.00;;;;;;5045395;28;87254;-57
2024/04/03 00:18:43;;;;;;;;;;;17.90;54.70;;;;;;5044276;28;87213;-55
2024/04/03 00:21:09;;;;;;;;;;;17.90;55.00;;;;;;5042392;28;87282;-56
2024/04/03 00:23:35;;;;;;;;;;;17.90;55.00;;;;;;5045260;27;87911;-57
2024/04/03 00:26:01;;;;;;;;;;;17.90;55.00;;;;;;5041017;28;89333;-57
2024/04/03 00:28:27;;;;;;;;;;;17.90;54.90;;;;;;5045426;27;87020;-56
2024/04/03 00:30:53;;;;;;;;;;;17.80;54.90;;;;;;5047905;28;88067;-57
2024/04/03 00:33:20;;;;;;;;;;;17.80;55.00;;;;;;5045617;27;87007;-51
2024/04/03 00:35:55;;;;;;;;;;;17.80;55.00;;;;;;5044859;28;86922;-56
2024/04/03 00:38:20;;;;;;;;;;;17.80;55.20;;;;;;5042922;28;87033;-57
2024/04/03 00:40:52;;;;;;;;;;;17.80;55.10;;;;;;5045035;27;87107;-56
2024/04/03 00:43:18;;;;;;;;;;;17.80;55.00;;;;;;5043673;28;86815;-57
2024/04/03 00:45:43;;;;;;;;;;;17.70;55.00;;;;;;5044328;27;88520;-56
2024/04/03 00:48:09;;;;;;;;;;;17.70;55.00;;;;;;5045394;27;87640;-53
2024/04/03 00:50:35;;;;;;;;;;;17.70;55.20;;;;;;5047024;27;88050;-57
2024/04/03 00:53:00;;;;;;;;;;;17.70;55.00;;;;;;5045424;28;86963;-57
2024/04/03 00:55:26;;;;;;;;;;;17.60;55.00;;;;;;5042458;27;86850;-57
2024/04/03 00:57:52;;;;;;;;;;;17.60;55.00;;;;;;5044928;27;87650;-56
2024/04/03 01:00:18;;;;;;;;;;;17.70;55.10;;;;;;5045388;28;87618;-56
2024/04/03 01:02:43;;;;;;;;;;;17.60;55.00;;;;;;5045004;27;86969;-56
2024/04/03 01:05:09;;;;;;;;;;;17.60;55.20;;;;;;5043622;28;88629;-57
2024/04/03 01:07:36;;;;;;;;;;;17.60;55.10;;;;;;5045095;28;86331;-56
2024/04/03 01:10:01;;;;;;;;;;;17.60;55.20;;;;;;5043554;27;86911;-56
2024/04/03 01:12:32;;;;;;;;;;;17.50;55.20;;;;;;5047420;27;87012;-56
2024/04/03 01:14:57;;;;;;;;;;;17.50;55.20;;;;;;5042406;28;88622;-57
2024/04/03 01:17:23;;;;;;;;;;;17.50;55.10;;;;;;5043896;27;87450;-57
2024/04/03 01:19:49;;;;;;;;;;;17.50;55.20;;;;;;5044725;28;86978;-57
2024/04/03 01:22:15;;;;;;;;;;;17.50;55.20;;;;;;5043543;28;87019;-56
2024/04/03 01:24:40;;;;;;;;;;;17.50;55.20;;;;;;5044626;27;87378;-57
2024/04/03 01:27:06;;;;;;;;;;;17.40;55.10;;;;;;5042752;28;87667;-56
2024/04/03 01:29:31;;;;;;;;;;;17.40;55.20;;;;;;5044635;27;87004;-57
2024/04/03 01:31:57;;;;;;;;;;;17.40;55.20;;;;;;5044815;27;86898;-57
2024/04/03 01:34:23;;;;;;;;;;;17.40;55.20;;;;;;5045691;28;87086;-55
2024/04/03 01:36:48;;;;;;;;;;;17.30;55.10;;;;;;5041997;28;87901;-56
2024/04/03 01:39:15;;;;;;;;;;;17.30;55.10;;;;;;5042538;28;87999;-56
2024/04/03 01:41:41;;;;;;;;;;;17.30;55.30;;;;;;5042046;28;88934;-57
2024/04/03 01:44:07;;;;;;;;;;;17.30;55.20;;;;;;5042161;28;87657;-57
2024/04/03 01:46:32;;;;;;;;;;;17.30;55.30;;;;;;5043728;28;87716;-55
2024/04/03 01:48:58;;;;;;;;;;;17.20;55.20;;;;;;5044293;28;87390;-56
2024/04/03 01:51:23;;;;;;;;;;;17.20;55.30;;;;;;5040602;28;88086;-56
2024/04/03 01:53:49;;;;;;;;;;;17.20;55.30;;;;;;5043866;28;87038;-54
2024/04/03 01:56:14;;;;;;;;;;;17.20;55.40;;;;;;5044684;28;86999;-56
2024/04/03 01:58:42;;;;;;;;;;;17.10;55.30;;;;;;5044594;28;87021;-55
2024/04/03 02:01:07;;;;;;;;;;;17.10;55.40;;;;;;5048033;27;89984;-56
2024/04/03 02:03:33;;;;;;;;;;;17.10;55.30;;;;;;5043150;28;88577;-55
2024/04/03 02:05:58;;;;;;;;;;;17.10;55.30;;;;;;5043001;27;86938;-56
2024/04/03 02:08:24;;;;;;;;;;;17.10;55.30;;;;;;5042338;27;88014;-55
2024/04/03 02:10:49;;;;;;;;;;;17.00;55.30;;;;;;5042723;28;86949;-54
2024/04/03 02:13:15;;;;;;;;;;;17.10;55.30;;;;;;5042248;28;86562;-54
2024/04/03 02:15:40;;;;;;;;;;;17.00;55.30;;;;;;5044039;28;87048;-56
2024/04/03 02:18:06;;;;;;;;;;;17.00;55.40;;;;;;5045751;28;88375;-55
2024/04/03 02:20:32;;;;;;;;;;;17.00;55.40;;;;;;5044427;28;87023;-55
2024/04/03 02:22:58;;;;;;;;;;;17.00;55.40;;;;;;5042185;28;87415;-56
2024/04/03 02:25:23;;;;;;;;;;;16.90;55.30;;;;;;5043974;27;87898;-55
2024/04/03 02:27:49;;;;;;;;;;;16.90;55.40;;;;;;5041860;28;88601;-54
2024/04/03 02:30:15;;;;;;;;;;;16.90;55.20;;;;;;5037877;28;87678;-56
2024/04/03 02:32:40;;;;;;;;;;;16.90;55.30;;;;;;5043527;27;87044;-56
2024/04/03 02:35:06;;;;;;;;;;;16.90;55.30;;;;;;5040818;28;87114;-55
2024/04/03 02:37:31;;;;;;;;;;;16.90;55.50;;;;;;5043173;27;87577;-56
2024/04/03 02:39:57;;;;;;;;;;;16.80;55.50;;;;;;5045210;27;87012;-55
2024/04/03 02:42:23;;;;;;;;;;;16.80;55.20;;;;;;5038475;28;87969;-56
2024/04/03 02:44:48;;;;;;;;;;;16.80;55.40;;;;;;5043646;27;86189;-55
2024/04/03 02:47:14;;;;;;;;;;;16.70;55.30;;;;;;5042581;27;87424;-55
2024/04/03 02:49:40;;;;;;;;;;;16.70;55.40;;;;;;5045976;27;88694;-55
2024/04/03 02:52:05;;;;;;;;;;;16.70;55.40;;;;;;5046347;27;88378;-53
2024/04/03 02:54:31;;;;;;;;;;;16.70;55.30;;;;;;5044817;27;87855;-54
2024/04/03 02:56:57;;;;;;;;;;;16.70;55.40;;;;;;5045266;27;87615;-55
2024/04/03 02:59:22;;;;;;;;;;;16.70;55.40;;;;;;5049657;27;87046;-55
2024/04/03 03:01:49;;;;;;;;;;;16.60;55.40;;;;;;5046848;27;87471;-53
2024/04/03 03:04:15;;;;;;;;;;;16.60;55.50;;;;;;5043241;28;88002;-52
2024/04/03 03:06:40;;;;;;;;;;;16.60;55.40;;;;;;5047209;28;86921;-56
2024/04/03 03:09:06;;;;;;;;;;;16.60;55.50;;;;;;5047319;28;86877;-53
2024/04/03 03:11:32;;;;;;;;;;;16.60;55.40;;;;;;5046628;28;87063;-53
2024/04/03 03:13:57;;;;;;;;;;;16.50;55.30;;;;;;5046014;28;87184;-55
2024/04/03 03:16:23;;;;;;;;;;;16.50;55.20;;;;;;5045519;27;89643;-55
2024/04/03 03:18:49;;;;;;;;;;;16.50;55.40;;;;;;5043014;27;86974;-50
2024/04/03 03:21:14;;;;;;;;;;;16.50;55.40;;;;;;5048243;27;87498;-55
2024/04/03 03:23:40;;;;;;;;;;;16.50;55.40;;;;;;5046104;27;87095;-55
2024/04/03 03:26:05;;;;;;;;;;;16.50;55.50;;;;;;5046549;27;86969;-56
2024/04/03 03:28:31;;;;;;;;;;;16.40;55.40;;;;;;5043298;27;87624;-56
2024/04/03 03:30:58;;;;;;;;;;;16.40;55.50;;;;;;5045063;28;87025;-56
2024/04/03 03:33:24;;;;;;;;;;;16.40;55.50;;;;;;5046347;27;87881;-54
2024/04/03 03:35:53;;;;;;;;;;;16.40;55.40;;;;;;5045596;27;88029;-54
2024/04/03 03:38:19;;;;;;;;;;;16.30;55.50;;;;;;5043507;28;87635;-54
2024/04/03 03:40:46;;;;;;;;;;;16.30;55.50;;;;;;5043506;28;87976;-54
2024/04/03 03:43:12;;;;;;;;;;;16.30;55.50;;;;;;5048544;27;88843;-55
2024/04/03 03:45:45;;;;;;;;;;;16.30;55.60;;;;;;5045445;27;87745;-55
2024/04/03 03:48:11;;;;;;;;;;;16.30;55.40;;;;;;5045097;28;87594;-55
2024/04/03 03:53:20;;;;;;;;;;;16.20;55.50;;;;;;5046420;28;87643;-54
2024/04/03 03:55:46;;;;;;;;;;;16.20;55.50;;;;;;5045655;28;87458;-53
2024/04/03 03:58:11;;;;;;;;;;;16.20;55.50;;;;;;5043265;27;86243;-54
2024/04/03 04:00:37;;;;;;;;;;;16.20;55.60;;;;;;5045018;28;86969;-55
2024/04/03 04:03:02;;;;;;;;;;;16.10;55.60;;;;;;5043105;28;87881;-55
2024/04/03 04:05:28;;;;;;;;;;;16.10;55.60;;;;;;5047472;27;88659;-56
2024/04/03 04:07:54;;;;;;;;;;;16.10;55.60;;;;;;5045279;27;88770;-55
2024/04/03 04:10:19;;;;;;;;;;;16.10;55.50;;;;;;5042355;27;87011;-54
2024/04/03 04:12:45;;;;;;;;;;;16.10;55.70;;;;;;5044908;28;87923;-53
2024/04/03 04:15:10;;;;;;;;;;;16.00;55.60;;;;;;5045740;28;88118;-55
2024/04/03 04:17:36;;;;;;;;;;;16.00;55.60;;;;;;5046054;27;87021;-54
2024/04/03 04:20:04;;;;;;;;;;;16.00;55.70;;;;;;5045776;28;87398;-56
2024/04/03 04:22:30;;;;;;;;;;;16.00;55.60;;;;;;5044161;27;87242;-55
2024/04/03 04:24:55;;;;;;;;;;;16.00;55.60;;;;;;5045551;27;87047;-55
2024/04/03 04:27:22;;;;;;;;;;;15.90;55.60;;;;;;5048323;28;87630;-56
2024/04/03 04:29:48;;;;;;;;;;;15.90;55.60;;;;;;5043485;27;88978;-55
2024/04/03 04:32:14;;;;;;;;;;;15.90;55.70;;;;;;5045658;27;88900;-52
2024/04/03 04:34:40;;;;;;;;;;;15.90;55.70;;;;;;5045182;28;88423;-56
2024/04/03 04:37:06;;;;;;;;;;;15.80;55.80;;;;;;5044721;27;86945;-56
2024/04/03 04:39:32;;;;;;;;;;;15.90;55.70;;;;;;5045171;28;86935;-56
2024/04/03 04:41:57;;;;;;;;;;;15.80;55.80;;;;;;5045187;28;86943;-55
2024/04/03 04:44:23;;;;;;;;;;;15.80;55.60;;;;;;5044935;28;86894;-55
2024/04/03 04:46:49;;;;;;;;;;;15.80;55.60;;;;;;5046151;27;86654;-55
2024/04/03 04:49:18;;;;;;;;;;;15.80;55.70;;;;;;5047434;27;89203;-55
2024/04/03 04:51:44;;;;;;;;;;;15.80;55.70;;;;;;5045253;27;86972;-54
2024/04/03 04:54:11;;;;;;;;;;;15.70;55.80;;;;;;5043936;27;91094;-55
2024/04/03 04:56:37;;;;;;;;;;;15.70;55.70;;;;;;5044538;27;86952;-55
2024/04/03 04:59:02;;;;;;;;;;;15.70;55.60;;;;;;5043446;27;87313;-55
2024/04/03 05:01:28;;;;;;;;;;;15.70;55.70;;;;;;5044747;28;87540;-55
2024/04/03 05:03:53;;;;;;;;;;;15.70;55.80;;;;;;5043197;27;87244;-56
2024/04/03 05:06:19;;;;;;;;;;;15.60;55.60;;;;;;5044455;27;87240;-54
2024/04/03 05:08:45;;;;;;;;;;;15.60;55.50;;;;;;5045718;28;88422;-55
2024/04/03 05:11:10;;;;;;;;;;;15.60;55.60;;;;;;5042156;28;89744;-57
2024/04/03 05:13:36;;;;;;;;;;;15.50;55.40;;;;;;5043314;28;87764;-56
2024/04/03 05:16:05;;;;;;;;;;;15.60;55.50;;;;;;5042873;27;87085;-55
2024/04/03 05:18:31;;;;;;;;;;;15.60;55.50;;;;;;5043039;28;88060;-54
2024/04/03 05:20:56;;;;;;;;;;;15.50;55.40;;;;;;5043709;28;87752;-55
2024/04/03 05:23:22;;;;;;;;;;;15.50;55.40;;;;;;5044759;28;87021;-54
2024/04/03 05:25:57;;;;;;;;;;;15.50;55.40;;;;;;5044832;27;86906;-55
2024/04/03 05:28:25;;;;;;;;;;;15.50;55.50;;;;;;5043218;27;87713;-55
2024/04/03 05:30:51;;;;;;;;;;;15.40;55.50;;;;;;5046336;27;87464;-52
2024/04/03 05:33:16;;;;;;;;;;;15.40;55.80;;;;;;5044265;27;87830;-55
2024/04/03 05:35:42;;;;;;;;;;;15.50;55.70;;;;;;5044915;28;86203;-56
2024/04/03 05:38:07;;;;;;;;;;;15.40;55.70;;;;;;5043543;27;87052;-55
2024/04/03 05:40:33;;;;;;;;;;;15.40;55.60;;;;;;5043984;28;87824;-56
2024/04/03 05:42:58;;;;;;;;;;;15.40;55.60;;;;;;5042752;27;88031;-55
2024/04/03 05:45:24;;;;;;;;;;;15.40;55.60;;;;;;5043107;27;89109;-56
2024/04/03 05:47:50;;;;;;;;;;;15.40;55.80;;;;;;5044133;28;87672;-55
2024/04/03 05:50:15;;;;;;;;;;;15.30;55.80;;;;;;5040589;27;87515;-56
2024/04/03 05:52:41;;;;;;;;;;;15.30;55.80;;;;;;5046739;27;87362;-55
2024/04/03 05:55:06;;;;;;;;;;;15.30;55.80;;;;;;5042520;28;87085;-54
2024/04/03 05:57:32;;;;;;;;;;;15.30;55.80;;;;;;5042514;28;87486;-53
2024/04/03 05:59:57;;;;;;;;;;;15.30;55.90;;;;;;5043827;28;86208;-55
2024/04/03 06:02:23;;;;;;;;;;;15.40;55.90;;;;;;5044090;27;86942;-55
2024/04/03 06:04:48;;;;;;;;;;;15.30;55.90;;;;;;5043192;28;86942;-56
2024/04/03 06:07:14;;;;;;;;;;;15.30;55.90;;;;;;5041692;27;88999;-55
2024/04/03 06:09:42;;;;;;;;;;;15.30;55.90;;;;;;5044045;27;87018;-56
2024/04/03 06:12:08;;;;;;;;;;;15.30;55.90;;;;;;5043253;27;86963;-56
2024/04/03 06:14:34;;;;;;;;;;;15.30;55.90;;;;;;5045021;27;87739;-56
2024/04/03 06:16:59;;;;;;;;;;;15.30;56.10;;;;;;5043560;28;87269;-55
2024/04/03 06:19:25;;;;;;;;;;;15.30;56.10;;;;;;5042533;27;88548;-55
2024/04/03 06:21:50;;;;;;;;;;;15.30;56.10;;;;;;5043806;27;87014;-55
2024/04/03 06:24:16;;;;;;;;;;;15.30;56.10;;;;;;5047661;27;87438;-56
2024/04/03 06:26:41;;;;;;;;;;;15.30;56.20;;;;;;5047040;28;87193;-55
2024/04/03 06:29:07;;;;;;;;;;;15.30;56.30;;;;;;5047185;27;87269;-55
2024/04/03 06:31:33;;;;;;;;;;;15.20;56.30;;;;;;5045952;28;87932;-54
2024/04/03 06:34:02;;;;;;;;;;;15.20;56.40;;;;;;5047009;28;87942;-54
2024/04/03 06:36:28;;;;;;;;;;;15.20;56.40;;;;;;5050166;27;86991;-55
2024/04/03 06:38:54;;;;;;;;;;;15.20;56.40;;;;;;5046538;27;88496;-56
2024/04/03 06:41:20;;;;;;;;;;;15.20;56.50;;;;;;5044208;28;87054;-55
2024/04/03 06:43:45;;;;;;;;;;;15.20;56.40;;;;;;5047301;28;86983;-54
2024/04/03 06:46:11;;;;;;;;;;;15.20;56.40;;;;;;5045230;28;87632;-56
2024/04/03 06:48:36;;;;;;;;;;;15.20;56.50;;;;;;5047299;28;86719;-56
2024/04/03 06:51:03;;;;;;;;;;;15.20;56.50;;;;;;5046870;27;87019;-55
2024/04/03 06:53:29;;;;;;;;;;;15.20;57.30;;;;;;5046616;27;88192;-53
2024/04/03 06:55:55;;;;;;;;;;;15.20;56.70;;;;;;5044494;27;87928;-55
2024/04/03 06:58:20;;;;;;;;;;;15.20;56.80;;;;;;5048098;28;88943;-54
2024/04/03 07:00:46;;;;;;;;;;;15.10;56.70;;;;;;5045945;28;87202;-52
2024/04/03 07:03:12;;;;;;;;;;;15.20;56.80;;;;;;5047156;28;86934;-55
2024/04/03 07:05:39;;;;;;;;;;;15.10;56.90;;;;;;5045614;28;87732;-54
2024/04/03 07:08:05;;;;;;;;;;;15.20;57.40;;;;;;5045229;28;87467;-52
2024/04/03 07:10:31;;;;;;;;;;;15.20;56.70;;;;;;5046916;27;87323;-55
2024/04/03 07:13:00;;;;;;;;;;;15.20;56.80;;;;;;5045368;27;88003;-54
2024/04/03 07:15:26;;;;;;;;;;;15.10;56.90;;;;;;5042758;27;87025;-56
2024/04/03 07:17:52;;;;;;;;;;;15.20;57.00;;;;;;5047020;27;88116;-54
2024/04/03 07:20:18;;;;;;;;;;;15.10;56.80;;;;;;5046014;27;88342;-53
2024/04/03 07:22:43;;;;;;;;;;;15.20;56.80;;;;;;5046211;27;87989;-51
2024/04/03 07:25:11;;;;;;;;;;;15.20;56.70;;;;;;5043828;28;88439;-52
2024/04/03 07:27:44;;;;;;;;;;;15.20;56.80;;;;;;5045850;28;87023;-56
2024/04/03 07:30:10;;;;;;;;;;;15.10;56.80;;;;;;5046675;28;87050;-56
2024/04/03 07:32:36;;;;;;;;;;;15.10;56.90;;;;;;5045478;27;87955;-55
2024/04/03 07:35:01;;;;;;;;;;;15.10;56.90;;;;;;5046099;27;87398;-56
2024/04/03 07:37:27;;;;;;;;;;;15.10;57.00;;;;;;5045340;27;87119;-55
2024/04/03 07:39:52;;;;;;;;;;;15.10;57.10;;;;;;5048899;28;86867;-55
2024/04/03 07:42:18;;;;;;;;;;;15.10;57.10;;;;;;5042483;28;87140;-55
2024/04/03 07:44:43;;;;;;;;;;;15.10;57.10;;;;;;5045458;28;88369;-55
2024/04/03 07:47:09;;;;;;;;;;;15.00;57.10;;;;;;5044721;28;86985;-55
2024/04/03 07:49:35;;;;;;;;;;;15.10;57.10;;;;;;5045967;27;87998;-51
2024/04/03 07:52:00;;;;;;;;;;;15.10;57.00;;;;;;5045258;27;88009;-54
2024/04/03 07:54:26;;;;;;;;;;;15.10;57.10;;;;;;5046234;28;87054;-52
2024/04/03 07:56:51;;;;;;;;;;;15.00;57.10;;;;;;5046154;28;86852;-50
2024/04/03 07:59:17;;;;;;;;;;;15.00;57.20;;;;;;5042939;28;87538;-52
2024/04/03 08:01:42;;;;;;;;;;;15.10;57.20;;;;;;5046614;27;86360;-55
2024/04/03 08:04:09;;;;;;;;;;;15.10;57.10;;;;;;5044019;28;87770;-52
2024/04/03 08:06:35;;;;;;;;;;;15.10;57.20;;;;;;5042196;27;87062;-55
2024/04/03 08:09:00;;;;;;;;;;;15.10;57.00;;;;;;5043720;27;87910;-55
2024/04/03 08:11:26;;;;;;;;;;;15.10;57.10;;;;;;5043839;28;88615;-54
2024/04/03 08:13:52;;;;;;;;;;;15.10;57.10;;;;;;5045796;28;87041;-51
2024/04/03 08:16:18;;;;;;;;;;;15.10;57.10;;;;;;5040868;28;87070;-55
2024/04/03 08:18:44;;;;;;;;;;;15.10;57.20;;;;;;5045527;27;87433;-54
2024/04/03 08:21:10;;;;;;;;;;;15.10;57.30;;;;;;5044022;28;86902;-56
2024/04/03 08:23:36;;;;;;;;;;;15.10;57.30;;;;;;5048201;27;87929;-53
2024/04/03 08:26:08;;;;;;;;;;;15.10;57.20;;;;;;5045204;27;86230;-55
2024/04/03 08:28:39;;;;;;;;;;;15.10;57.30;;;;;;5045663;27;87019;-54
2024/04/03 08:31:13;;;;;;;;;;;15.10;57.30;;;;;;5043998;28;88844;-55
2024/04/03 08:33:39;;;;;;;;;;;15.10;57.30;;;;;;5039514;27;87989;-55
2024/04/03 08:36:06;;;;;;;;;;;15.10;57.20;;;;;;5042062;28;87919;-56
2024/04/03 08:38:31;;;;;;;;;;;15.10;57.10;;;;;;5043804;28;88506;-55
2024/04/03 08:40:57;;;;;;;;;;;15.10;57.20;;;;;;5043613;27;87031;-55
2024/04/03 08:43:23;;;;;;;;;;;15.10;57.20;;;;;;5043652;27;87907;-54
2024/04/03 08:45:49;;;;;;;;;;;15.10;57.20;;;;;;5045629;27;87622;-51
2024/04/03 08:48:20;;;;;;;;;;;15.10;57.30;;;;;;5044933;27;87803;-54
2024/04/03 08:50:46;;;;;;;;;;;15.10;57.20;;;;;;5045419;27;87108;-52
2024/04/03 08:53:17;;;;;;;;;;;15.10;57.20;;;;;;5044956;28;87842;-53
2024/04/03 08:55:45;;;;;;;;;;;15.20;57.20;;;;;;5044869;28;86990;-53
2024/04/03 08:58:10;;;;;;;;;;;15.20;57.10;;;;;;5043410;28;89448;-54
2024/04/03 09:00:36;;;;;;;;;;;15.10;57.20;;;;;;5045178;28;87204;-53
2024/04/03 09:03:02;;;;;;;;;;;15.10;57.10;;;;;;5042646;27;86950;-54
2024/04/03 09:05:27;;;;;;;;;;;15.10;57.20;;;;;;5042128;27;88394;-54
2024/04/03 09:08:00;;;;;;;;;;;15.20;57.30;;;;;;5047260;27;87042;-56
2024/04/03 09:10:29;;;;;;;;;;;15.20;57.20;;;;;;5042562;27;87559;-54
2024/04/03 09:12:54;;;;;;;;;;;15.20;57.20;;;;;;5039927;27;86953;-56
2024/04/03 09:15:20;;;;;;;;;;;15.20;57.20;;;;;;5044485;27;87806;-55
2024/04/03 09:17:47;;;;;;;;;;;15.20;57.20;;;;;;5043528;28;87474;-51
2024/04/03 09:20:21;;;;;;;;;;;15.20;57.10;;;;;;5044159;27;87077;-55
2024/04/03 09:22:47;;;;;;;;;;;15.20;57.10;;;;;;5035152;28;88262;-53
2024/04/03 09:25:13;;;;;;;;;;;15.20;57.10;;;;;;5042934;27;87607;-55
2024/04/03 09:27:39;;;;;;;;;;;15.20;57.10;;;;;;5046718;27;87422;-55
2024/04/03 09:30:06;;;;;;;;;;;15.20;57.10;;;;;;5042512;27;88591;-54
2024/04/03 09:32:33;;;;;;;;;;;15.20;57.10;;;;;;5043158;27;87067;-53
2024/04/03 09:34:59;;;;;;;;;;;15.20;57.00;;;;;;5044375;27;87131;-55
2024/04/03 09:37:25;;;;;;;;;;;15.30;57.20;;;;;;5042445;27;87559;-55
2024/04/03 09:39:50;;;;;;;;;;;15.30;56.90;;;;;;5043912;28;87073;-55
2024/04/03 09:42:18;;;;;;;;;;;15.30;57.00;;;;;;5042624;27;87093;-52
2024/04/03 09:44:45;;;;;;;;;;;15.30;57.00;;;;;;5043301;27;87647;-55
2024/04/03 09:47:14;;;;;;;;;;;15.30;57.00;;;;;;5041466;28;88144;-54
2024/04/03 09:49:50;;;;;;;;;;;15.30;57.10;;;;;;5044916;27;88911;-54
2024/04/03 09:52:17;;;;;;;;;;;15.30;57.10;;;;;;5043057;27;87040;-53
2024/04/03 09:54:43;;;;;;;;;;;15.30;57.00;;;;;;5044064;27;86876;-52
2024/04/03 09:57:09;;;;;;;;;;;15.30;56.90;;;;;;5043605;27;87672;-54
2024/04/03 09:59:37;;;;;;;;;;;15.30;57.00;;;;;;5046118;28;86995;-52
2024/04/03 10:02:03;;;;;;;;;;;15.30;57.00;;;;;;5048000;27;86914;-55
2024/04/03 10:04:38;;;;;;;;;;;15.40;57.10;;;;;;5045229;27;87772;-54
2024/04/03 10:07:14;;;;;;;;;;;15.40;57.10;;;;;;5046468;28;87466;-54
2024/04/03 10:09:40;;;;;;;;;;;15.40;57.20;;;;;;5045203;27;88141;-55
2024/04/03 10:12:07;;;;;;;;;;;15.40;57.10;;;;;;5049865;27;88707;-53
2024/04/03 10:14:35;;;;;;;;;;;15.40;57.10;;;;;;5047532;27;89573;-54
2024/04/03 10:17:01;;;;;;;;;;;15.40;57.00;;;;;;5043344;28;87667;-55
2024/04/03 10:19:30;;;;;;;;;;;15.40;57.10;;;;;;5043061;28;87288;-54
2024/04/03 10:21:56;;;;;;;;;;;15.40;57.00;;;;;;5047626;28;87376;-53
2024/04/03 10:24:22;;;;;;;;;;;15.40;57.00;;;;;;5045274;27;88574;-52
2024/04/03 10:26:49;;;;;;;;;;;15.50;57.10;;;;;;5044925;28;86984;-53
2024/04/03 10:29:14;;;;;;;;;;;15.50;57.00;;;;;;5046740;27;87925;-55
2024/04/03 10:31:40;;;;;;;;;;;15.50;57.00;;;;;;5044112;27;88821;-55
2024/04/03 10:34:06;;;;;;;;;;;15.50;56.80;;;;;;5049803;27;87613;-56
2024/04/03 10:36:31;;;;;;;;;;;15.50;57.00;;;;;;5046321;27;88886;-56
2024/04/03 10:38:57;;;;;;;;;;;15.50;56.80;;;;;;5044581;27;87743;-55
2024/04/03 10:41:23;;;;;;;;;;;15.50;56.80;;;;;;5044332;27;86969;-52
2024/04/03 10:43:48;;;;;;;;;;;15.60;56.80;;;;;;5046536;27;88405;-54
2024/04/03 10:46:24;;;;;;;;;;;15.60;56.80;;;;;;5047537;27;86997;-56
2024/04/03 10:48:49;;;;;;;;;;;15.60;56.80;;;;;;5043521;28;88044;-55
2024/04/03 10:51:15;;;;;;;;;;;15.60;56.80;;;;;;5045569;28;88309;-55
2024/04/03 10:53:41;;;;;;;;;;;15.60;56.80;;;;;;5046627;27;86260;-54
2024/04/03 10:56:06;;;;;;;;;;;15.70;56.80;;;;;;5047764;27;87094;-56
2024/04/03 10:58:32;;;;;;;;;;;15.70;56.90;;;;;;5044567;28;87062;-54
2024/04/03 11:00:57;;;;;;;;;;;15.70;56.90;;;;;;5046541;27;87906;-55
2024/04/03 11:03:23;;;;;;;;;;;15.70;56.90;;;;;;5045559;28;87778;-51
2024/04/03 11:05:49;;;;;;;;;;;15.70;56.90;;;;;;5042873;27;87075;-54
2024/04/03 11:08:15;;;;;;;;;;;15.70;56.90;;;;;;5045750;27;87989;-55
2024/04/03 11:10:41;;;;;;;;;;;15.70;57.00;;;;;;5044876;27;88217;-56
2024/04/03 11:13:09;;;;;;;;;;;15.80;57.10;;;;;;5044893;28;87058;-55
2024/04/03 11:15:35;;;;;;;;;;;15.80;57.10;;;;;;5048478;27;86959;-53
2024/04/03 11:18:00;;;;;;;;;;;15.80;57.10;;;;;;5047464;27;86242;-53
2024/04/03 11:20:26;;;;;;;;;;;15.80;57.10;;;;;;5044065;27;87223;-55
2024/04/03 11:22:55;;;;;;;;;;;15.90;57.10;;;;;;5046315;28;87862;-56
2024/04/03 11:25:21;;;;;;;;;;;15.90;57.00;;;;;;5042539;28;88750;-56
2024/04/03 11:27:47;;;;;;;;;;;15.90;57.00;;;;;;5046702;27;87831;-55
2024/04/03 11:30:12;;;;;;;;;;;15.90;57.00;;;;;;5046378;27;87420;-55
2024/04/03 11:32:38;;;;;;;;;;;16.00;57.00;;;;;;5046446;28;87063;-55
2024/04/03 11:35:04;;;;;;;;;;;16.00;57.00;;;;;;5044905;28;87116;-55
2024/04/03 11:37:30;;;;;;;;;;;16.00;57.10;;;;;;5046627;27;89066;-52
2024/04/03 11:39:55;;;;;;;;;;;16.00;57.00;;;;;;5046184;27;87835;-54
2024/04/03 11:42:21;;;;;;;;;;;16.00;57.00;;;;;;5046171;28;86686;-54
2024/04/03 11:44:47;;;;;;;;;;;16.00;57.00;;;;;;5044349;27;87008;-53
2024/04/03 11:47:12;;;;;;;;;;;16.10;57.10;;;;;;5046522;27;87404;-55
2024/04/03 11:49:38;;;;;;;;;;;16.10;57.10;;;;;;5039742;28;88742;-51
2024/04/03 11:52:04;;;;;;;;;;;16.10;57.10;;;;;;5045965;27;87013;-55
2024/04/03 11:54:30;;;;;;;;;;;16.10;57.00;;;;;;5043649;27;88109;-55
2024/04/03 11:56:56;;;;;;;;;;;16.10;57.10;;;;;;5046048;28;87536;-55
2024/04/03 11:59:21;;;;;;;;;;;16.10;57.00;;;;;;5048540;27;87354;-54
2024/04/03 12:01:47;;;;;;;;;;;16.10;57.00;;;;;;5045568;27;88732;-55
2024/04/03 12:04:13;;;;;;;;;;;16.10;57.00;;;;;;5043797;27;87834;-54
2024/04/03 12:06:39;;;;;;;;;;;16.10;57.00;;;;;;5044136;28;88261;-53
2024/04/03 12:09:05;;;;;;;;;;;16.20;57.10;;;;;;5041926;27;88646;-54
2024/04/03 12:11:31;;;;;;;;;;;16.20;57.10;;;;;;5045952;27;87188;-53
2024/04/03 12:13:56;;;;;;;;;;;16.20;57.10;;;;;;5043118;28;87974;-53
2024/04/03 12:16:26;;;;;;;;;;;16.20;57.10;;;;;;5042707;27;86971;-52
2024/04/03 12:19:12;;;;;;;;;;;16.30;57.10;;;;;;5043264;28;87057;-51
2024/04/03 12:21:39;;;;;;;;;;;16.30;57.10;;;;;;5044087;27;87590;-55
2024/04/03 12:24:04;;;;;;;;;;;16.30;57.10;;;;;;5045794;27;86983;-55
2024/04/03 12:26:30;;;;;;;;;;;16.30;57.00;;;;;;5045272;27;86942;-54
2024/04/03 12:28:56;;;;;;;;;;;16.30;57.10;;;;;;5043909;28;87483;-55
2024/04/03 12:31:21;;;;;;;;;;;16.40;57.10;;;;;;5045542;28;86179;-55
2024/04/03 12:33:48;;;;;;;;;;;16.40;57.10;;;;;;5042436;27;87169;-51
2024/04/03 12:36:13;;;;;;;;;;;16.40;57.00;;;;;;5043898;27;88415;-55
2024/04/03 12:38:39;;;;;;;;;;;16.40;57.10;;;;;;5049371;27;88359;-55
2024/04/03 12:41:05;;;;;;;;;;;16.40;57.00;;;;;;5043401;28;87962;-53
2024/04/03 12:43:30;;;;;;;;;;;16.40;57.10;;;;;;5047289;27;90079;-51
2024/04/03 12:45:58;;;;;;;;;;;16.50;57.00;;;;;;5045178;27;86962;-54
2024/04/03 12:48:24;;;;;;;;;;;16.50;57.00;;;;;;5044522;27;88644;-55
2024/04/03 12:50:50;;;;;;;;;;;16.50;57.10;;;;;;5045095;27;86944;-55
2024/04/03 12:53:16;;;;;;;;;;;16.50;57.10;;;;;;5045403;27;86940;-54
2024/04/03 12:55:41;;;;;;;;;;;16.50;57.10;;;;;;5045586;27;87675;-54
2024/04/03 12:58:07;;;;;;;;;;;16.50;57.00;;;;;;5042174;27;87445;-53
2024/04/03 13:00:32;;;;;;;;;;;16.60;57.00;;;;;;5044210;28;86950;-54
2024/04/03 13:02:58;;;;;;;;;;;16.60;57.00;;;;;;5042624;27;88981;-55
2024/04/03 13:05:23;;;;;;;;;;;16.60;57.00;;;;;;5044563;28;87046;-51
2024/04/03 13:07:49;;;;;;;;;;;16.70;57.10;;;;;;5041843;27;87552;-55
2024/04/03 13:10:15;;;;;;;;;;;16.70;57.00;;;;;;5044282;27;87438;-55
2024/04/03 13:12:40;;;;;;;;;;;16.70;57.00;;;;;;5043708;28;87899;-55
2024/04/03 13:15:06;;;;;;;;;;;16.70;56.90;;;;;;5041955;28;87370;-55
2024/04/03 13:17:31;;;;;;;;;;;16.80;56.80;;;;;;5043960;27;86982;-55
2024/04/03 13:19:58;;;;;;;;;;;16.80;56.90;;;;;;5042662;27;88133;-53
2024/04/03 13:22:27;;;;;;;;;;;16.80;56.90;;;;;;5043032;27;89007;-51
2024/04/03 13:24:52;;;;;;;;;;;16.80;56.80;;;;;;5047353;27;86968;-55
2024/04/03 13:27:18;;;;;;;;;;;16.80;57.00;;;;;;5043563;27;89305;-55
2024/04/03 13:29:44;;;;;;;;;;;16.90;57.00;;;;;;5044608;27;87046;-54
2024/04/03 13:32:09;;;;;;;;;;;16.90;57.00;;;;;;5043025;27;87920;-55
2024/04/03 13:34:35;;;;;;;;;;;16.90;57.00;;;;;;5043916;28;87437;-52
2024/04/03 13:37:00;;;;;;;;;;;16.90;56.90;;;;;;5043314;27;87392;-54
2024/04/03 13:39:26;;;;;;;;;;;17.00;56.80;;;;;;5044361;27;88163;-54
2024/04/03 13:41:52;;;;;;;;;;;17.00;56.70;;;;;;5043602;28;87351;-55
2024/04/03 13:44:17;;;;;;;;;;;17.00;56.60;;;;;;5045159;28;86961;-55
2024/04/03 13:46:43;;;;;;;;;;;17.00;56.70;;;;;;5047343;27;86904;-53
2024/04/03 13:49:15;;;;;;;;;;;17.10;56.80;;;;;;5041791;28;87465;-55
2024/04/03 13:51:41;;;;;;;;;;;17.10;56.70;;;;;;5041879;27;88055;-53
2024/04/03 13:54:06;;;;;;;;;;;17.10;56.80;;;;;;5043222;28;87725;-55
2024/04/03 13:56:32;;;;;;;;;;;17.10;56.70;;;;;;5044391;28;87136;-54
2024/04/03 13:58:57;;;;;;;;;;;17.20;56.70;;;;;;5044316;28;87272;-55
2024/04/03 14:01:23;;;;;;;;;;;17.20;56.70;;;;;;5043501;28;87014;-54
2024/04/03 14:03:49;;;;;;;;;;;17.20;56.70;;;;;;5043498;28;87043;-55
2024/04/03 14:06:14;;;;;;;;;;;17.20;56.80;;;;;;5042288;27;87799;-55
2024/04/03 14:08:41;;;;;;;;;;;17.20;56.80;;;;;;5044661;27;86901;-56
2024/04/03 14:11:07;;;;;;;;;;;17.20;56.80;;;;;;5039049;27;87031;-55
2024/04/03 14:13:33;;;;;;;;;;;17.20;56.80;;;;;;5041966;27;87728;-54